createdAt,value
2019-04-20T00:00:02.702Z,9.71
2019-04-20T00:00:58.539Z,9.72
2019-04-20T00:02:03.562Z,9.75
2019-04-20T00:02:59.528Z,9.56
2019-04-20T00:03:56.139Z,9.56
2019-04-20T00:04:55.133Z,9.47
2019-04-20T00:07:46.551Z,9.48
2019-04-20T00:08:51.251Z,9.43
2019-04-20T00:09:56.595Z,9.42
2019-04-20T00:11:02.592Z,9.38
2019-04-20T00:12:00.132Z,9.36
2019-04-20T00:13:03.813Z,9.39
2019-04-20T00:13:59.341Z,9.32
2019-04-20T00:14:56.586Z,9.36
2019-04-20T00:15:49.343Z,9.23
2019-04-20T00:16:53.047Z,9.18
2019-04-20T00:17:58.393Z,9.15
2019-04-20T00:18:54.832Z,9.15
2019-04-20T00:19:53.828Z,9.17
2019-04-20T00:20:51.362Z,9.20
2019-04-20T00:21:59.838Z,9.08
2019-04-20T00:22:54.085Z,9.10
2019-04-20T00:23:51.374Z,9.10
2019-04-20T00:24:55.364Z,9.10
2019-04-20T00:26:00.495Z,9.13
2019-04-20T00:27:15.973Z,9.04
2019-04-20T00:29:25.357Z,9.05
2019-04-20T00:29:36.722Z,9.05
2019-04-20T00:30:39.203Z,8.98
2019-04-20T00:31:29.632Z,8.95
2019-04-20T00:33:56.162Z,8.95
2019-04-20T00:34:26.404Z,8.91
2019-04-20T00:35:18.838Z,8.87
2019-04-20T00:36:18.580Z,8.84
2019-04-20T00:37:21.161Z,8.77
2019-04-20T00:38:21.153Z,8.79
2019-04-20T00:40:37.267Z,8.79
2019-04-20T00:40:43.437Z,8.83
2019-04-20T00:41:49.019Z,8.83
2019-04-20T00:42:48.834Z,8.70
2019-04-20T00:43:47.156Z,8.77
2019-04-20T00:44:44.681Z,8.80
2019-04-20T00:45:47.668Z,8.83
2019-04-20T00:46:56.824Z,8.71
2019-04-20T00:47:54.615Z,8.62
2019-04-20T00:48:50.476Z,8.58
2019-04-20T00:49:52.291Z,8.66
2019-04-20T00:51:00.911Z,8.53
2019-04-20T00:52:11.217Z,8.59
2019-04-20T00:52:54.240Z,8.53
2019-04-20T00:53:47.715Z,8.58
2019-04-20T00:56:09.867Z,8.41
2019-04-20T00:57:20.484Z,8.45
2019-04-20T00:58:23.611Z,8.44
2019-04-20T00:59:20.074Z,8.40
2019-04-20T01:00:26.819Z,8.38
2019-04-20T01:01:31.184Z,8.44
2019-04-20T01:02:20.754Z,8.41
2019-04-20T01:03:30.537Z,8.52
2019-04-20T01:04:25.484Z,8.41
2019-04-20T01:05:23.137Z,8.56
2019-04-20T01:06:28.914Z,8.59
2019-04-20T01:08:38.021Z,8.44
2019-04-20T01:09:13.986Z,8.47
2019-04-20T01:11:39.470Z,8.44
2019-04-20T01:12:12.658Z,8.37
2019-04-20T01:13:19.826Z,8.41
2019-04-20T01:14:12.302Z,8.33
2019-04-20T01:15:23.033Z,8.34
2019-04-20T01:16:22.505Z,8.28
2019-04-20T01:17:11.927Z,8.20
2019-04-20T01:18:13.833Z,8.25
2019-04-20T01:19:11.570Z,8.12
2019-04-20T01:21:38.423Z,8.18
2019-04-20T01:22:14.376Z,8.20
2019-04-20T01:23:15.261Z,8.18
2019-04-20T01:24:20.060Z,8.23
2019-04-20T01:25:18.250Z,8.16
2019-04-20T01:26:15.570Z,8.05
2019-04-20T01:27:25.868Z,8.00
2019-04-20T01:28:31.061Z,7.89
2019-04-20T01:29:21.843Z,7.89
2019-04-20T01:30:21.961Z,7.87
2019-04-20T01:31:18.618Z,7.77
2019-04-20T01:32:27.725Z,7.89
2019-04-20T01:33:25.890Z,7.89
2019-04-20T01:34:27.873Z,7.80
2019-04-20T01:42:34.129Z,7.75
2019-04-20T01:43:33.708Z,7.75
2019-04-20T01:44:35.871Z,7.67
2019-04-20T01:45:35.662Z,7.69
2019-04-20T01:46:32.196Z,7.67
2019-04-20T01:47:38.869Z,7.72
2019-04-20T01:48:38.682Z,7.63
2019-04-20T01:49:40.260Z,7.68
2019-04-20T01:50:36.252Z,7.63
2019-04-20T01:51:42.917Z,7.64
2019-04-20T01:52:44.039Z,7.64
2019-04-20T01:54:21.253Z,7.61
2019-04-20T01:58:50.615Z,7.34
2019-04-20T02:00:21.067Z,7.24
2019-04-20T02:00:37.275Z,7.27
2019-04-20T02:09:03.191Z,6.81
2019-04-20T02:11:32.722Z,6.70
2019-04-20T02:12:31.150Z,6.67
2019-04-20T02:13:40.160Z,6.64
2019-04-20T02:14:35.884Z,6.70
2019-04-20T02:19:52.668Z,6.49
2019-04-20T02:20:58.086Z,6.44
2019-04-20T02:21:55.412Z,6.43
2019-04-20T02:24:12.534Z,6.64
2019-04-20T02:24:47.030Z,6.66
2019-04-20T02:25:35.676Z,6.76
2019-04-20T02:26:36.662Z,6.77
2019-04-20T02:30:04.455Z,6.79
2019-04-20T02:31:59.439Z,6.76
2019-04-20T02:33:27.479Z,6.70
2019-04-20T02:34:23.816Z,6.84
2019-04-20T02:35:18.289Z,6.71
2019-04-20T02:36:33.687Z,6.79
2019-04-20T02:38:36.510Z,6.66
2019-04-20T02:39:32.943Z,6.71
2019-04-20T02:40:19.196Z,6.66
2019-04-20T02:41:21.466Z,6.69
2019-04-20T02:44:23.940Z,6.49
2019-04-20T02:45:27.695Z,6.62
2019-04-20T02:46:26.535Z,6.62
2019-04-20T02:47:21.552Z,6.58
2019-04-20T02:48:15.904Z,6.64
2019-04-20T02:51:22.915Z,6.55
2019-04-20T02:52:50.596Z,6.54
2019-04-20T02:55:26.890Z,6.48
2019-04-20T02:56:44.625Z,6.44
2019-04-20T02:58:34.706Z,6.46
2019-04-20T02:59:53.348Z,6.54
2019-04-20T03:00:24.054Z,6.52
2019-04-20T03:01:20.483Z,6.56
2019-04-20T03:02:17.319Z,6.49
2019-04-20T03:03:11.051Z,6.43
2019-04-20T03:04:03.446Z,6.51
2019-04-20T03:05:12.192Z,6.37
2019-04-20T03:06:14.773Z,6.44
2019-04-20T03:07:15.270Z,6.49
2019-04-20T03:08:17.639Z,6.34
2019-04-20T03:09:24.308Z,6.40
2019-04-20T03:10:17.963Z,6.40
2019-04-20T03:11:21.097Z,6.37
2019-04-20T03:12:25.714Z,6.19
2019-04-20T03:13:19.809Z,6.31
2019-04-20T03:14:20.053Z,6.22
2019-04-20T03:15:22.599Z,6.12
2019-04-20T03:16:22.130Z,6.22
2019-04-20T03:17:26.057Z,6.11
2019-04-20T03:18:21.349Z,6.03
2019-04-20T03:19:17.357Z,5.99
2019-04-20T03:20:24.191Z,6.03
2019-04-20T03:21:24.744Z,5.99
2019-04-20T03:22:21.346Z,5.89
2019-04-20T03:23:29.717Z,5.94
2019-04-20T03:25:30.061Z,5.96
2019-04-20T03:26:27.751Z,5.93
2019-04-20T03:27:16.137Z,6.00
2019-04-20T03:28:18.229Z,5.99
2019-04-20T03:29:12.801Z,6.01
2019-04-20T03:33:35.123Z,6.15
2019-04-20T03:34:51.544Z,6.22
2019-04-20T03:35:25.051Z,6.19
2019-04-20T03:36:25.200Z,6.31
2019-04-20T03:37:26.952Z,6.27
2019-04-20T03:38:23.092Z,6.37
2019-04-20T03:39:17.640Z,6.33
2019-04-20T03:40:12.558Z,6.34
2019-04-20T03:41:18.308Z,6.18
2019-04-20T03:42:00.441Z,6.14
2019-04-20T03:42:59.094Z,6.31
2019-04-20T03:44:04.108Z,6.15
2019-04-20T03:45:06.088Z,6.19
2019-04-20T03:46:05.583Z,6.18
2019-04-20T03:47:04.566Z,6.14
2019-04-20T03:48:16.092Z,6.14
2019-04-20T03:50:22.440Z,6.06
2019-04-20T03:51:26.001Z,6.08
2019-04-20T03:52:24.159Z,5.96
2019-04-20T03:53:19.542Z,5.91
2019-04-20T03:54:13.790Z,5.83
2019-04-20T03:55:16.118Z,5.81
2019-04-20T03:56:22.774Z,5.82
2019-04-20T03:57:22.373Z,5.76
2019-04-20T03:58:18.528Z,5.75
2019-04-20T03:59:11.318Z,5.78
2019-04-20T04:00:16.284Z,5.68
2019-04-20T04:01:19.882Z,5.72
2019-04-20T04:02:29.715Z,5.67
2019-04-20T04:03:29.300Z,5.64
2019-04-20T04:04:21.497Z,5.51
2019-04-20T04:05:17.690Z,5.68
2019-04-20T04:06:11.814Z,5.65
2019-04-20T04:07:01.852Z,5.57
2019-04-20T04:08:10.557Z,5.54
2019-04-20T04:09:12.223Z,5.74
2019-04-20T04:10:14.002Z,5.63
2019-04-20T04:11:16.235Z,5.60
2019-04-20T04:12:08.911Z,5.63
2019-04-20T04:12:58.940Z,5.72
2019-04-20T04:13:56.714Z,5.57
2019-04-20T04:14:57.930Z,5.65
2019-04-20T04:16:03.304Z,5.65
2019-04-20T04:17:01.271Z,5.65
2019-04-20T04:18:04.533Z,5.64
2019-04-20T04:19:06.155Z,5.57
2019-04-20T04:20:05.076Z,5.57
2019-04-20T04:21:03.901Z,5.67
2019-04-20T04:22:12.268Z,5.71
2019-04-20T04:24:10.696Z,5.68
2019-04-20T04:25:14.916Z,5.74
2019-04-20T04:26:18.731Z,5.81
2019-04-20T04:27:16.208Z,5.91
2019-04-20T04:28:14.253Z,5.79
2019-04-20T04:29:21.384Z,5.96
2019-04-20T04:30:14.445Z,6.00
2019-04-20T04:31:16.401Z,6.00
2019-04-20T04:32:37.553Z,6.12
2019-04-20T04:33:44.555Z,6.04
2019-04-20T04:34:17.393Z,6.04
2019-04-20T04:35:15.847Z,6.12
2019-04-20T04:36:13.823Z,6.25
2019-04-20T04:37:17.238Z,6.37
2019-04-20T04:38:23.674Z,6.34
2019-04-20T04:39:21.208Z,6.38
2019-04-20T04:40:27.813Z,6.48
2019-04-20T04:41:32.316Z,6.76
2019-04-20T04:42:22.318Z,7.05
2019-04-20T04:43:20.554Z,7.23
2019-04-20T04:44:11.229Z,7.57
2019-04-20T04:45:04.885Z,7.83
2019-04-20T04:45:59.529Z,8.18
2019-04-20T04:47:02.775Z,8.52
2019-04-20T04:47:59.587Z,8.84
2019-04-20T04:49:06.829Z,8.89
2019-04-20T04:50:07.458Z,9.15
2019-04-20T04:51:03.407Z,9.51
2019-04-20T04:52:05.623Z,9.81
2019-04-20T04:53:07.344Z,9.86
2019-04-20T04:54:10.185Z,9.83
2019-04-20T04:55:16.168Z,9.91
2019-04-20T04:56:05.806Z,10.12
2019-04-20T04:56:58.675Z,10.23
2019-04-20T04:57:56.422Z,10.74
2019-04-20T04:58:56.407Z,10.85
2019-04-20T04:59:57.316Z,11.27
2019-04-20T05:01:01.360Z,11.52
2019-04-20T05:01:59.780Z,11.47
2019-04-20T05:03:01.112Z,11.42
2019-04-20T05:04:22.751Z,11.44
2019-04-20T05:05:17.398Z,11.51
2019-04-20T05:06:12.405Z,11.61
2019-04-20T05:07:11.693Z,11.78
2019-04-20T05:08:07.578Z,12.04
2019-04-20T05:09:03.171Z,12.01
2019-04-20T05:09:59.107Z,12.29
2019-04-20T05:10:56.364Z,12.82
2019-04-20T05:12:03.973Z,13.23
2019-04-20T05:12:58.837Z,13.39
2019-04-20T05:14:02.056Z,13.30
2019-04-20T05:15:07.582Z,13.03
2019-04-20T05:16:14.698Z,13.12
2019-04-20T05:17:12.680Z,13.42
2019-04-20T05:18:20.852Z,13.54
2019-04-20T05:19:19.354Z,13.81
2019-04-20T05:20:18.136Z,14.02
2019-04-20T05:21:15.415Z,13.79
2019-04-20T05:22:19.362Z,13.88
2019-04-20T05:23:12.977Z,14.18
2019-04-20T05:24:15.324Z,14.54
2019-04-20T05:25:20.373Z,14.69
2019-04-20T05:26:19.671Z,14.36
2019-04-20T05:27:19.085Z,13.87
2019-04-20T05:28:13.049Z,13.82
2019-04-20T05:29:07.958Z,14.10
2019-04-20T05:29:59.199Z,14.20
2019-04-20T05:30:59.917Z,14.52
2019-04-20T05:32:07.369Z,14.69
2019-04-20T05:33:06.046Z,14.91
2019-04-20T05:34:20.169Z,14.89
2019-04-20T05:35:23.767Z,14.73
2019-04-20T05:36:19.325Z,15.10
2019-04-20T05:37:27.445Z,15.31
2019-04-20T05:38:28.260Z,15.41
2019-04-20T05:39:22.507Z,15.29
2019-04-20T05:40:22.713Z,15.23
2019-04-20T05:41:20.160Z,15.28
2019-04-20T05:42:24.584Z,15.09
2019-04-20T05:43:17.943Z,14.75
2019-04-20T05:44:12.689Z,14.62
2019-04-20T05:45:16.714Z,14.47
2019-04-20T05:46:21.193Z,14.37
2019-04-20T05:47:19.555Z,14.17
2019-04-20T05:48:11.924Z,13.97
2019-04-20T05:49:23.593Z,13.79
2019-04-20T05:50:18.548Z,13.59
2019-04-20T05:51:25.521Z,13.75
2019-04-20T05:52:31.734Z,13.91
2019-04-20T05:53:20.250Z,13.81
2019-04-20T05:54:18.971Z,13.42
2019-04-20T05:55:21.006Z,13.30
2019-04-20T05:56:17.295Z,13.73
2019-04-20T05:57:25.430Z,14.10
2019-04-20T05:58:24.541Z,14.35
2019-04-20T05:59:14.974Z,14.64
2019-04-20T06:00:20.220Z,15.01
2019-04-20T06:01:22.942Z,15.06
2019-04-20T06:02:26.237Z,14.18
2019-04-20T06:04:17.272Z,13.69
2019-04-20T06:05:24.068Z,13.44
2019-04-20T06:06:16.825Z,13.32
2019-04-20T06:07:21.576Z,13.29
2019-04-20T06:08:30.366Z,13.11
2019-04-20T06:09:22.750Z,12.85
2019-04-20T06:10:20.819Z,12.74
2019-04-20T06:11:21.706Z,12.56
2019-04-20T06:12:19.899Z,12.90
2019-04-20T06:13:15.039Z,12.92
2019-04-20T06:14:09.099Z,12.64
2019-04-20T06:15:12.734Z,12.74
2019-04-20T06:16:15.743Z,13.22
2019-04-20T06:17:21.073Z,13.41
2019-04-20T06:18:13.272Z,14.00
2019-04-20T06:19:29.817Z,14.07
2019-04-20T06:20:19.421Z,14.17
2019-04-20T06:21:27.671Z,13.49
2019-04-20T06:22:27.218Z,13.03
2019-04-20T06:23:24.597Z,13.04
2019-04-20T06:24:26.765Z,13.36
2019-04-20T06:26:40.152Z,14.00
2019-04-20T06:27:16.418Z,14.36
2019-04-20T06:28:15.649Z,14.07
2019-04-20T06:29:16.335Z,14.37
2019-04-20T06:30:13.768Z,14.65
2019-04-20T06:31:19.131Z,15.16
2019-04-20T06:32:27.165Z,15.54
2019-04-20T06:33:24.538Z,15.51
2019-04-20T06:35:33.577Z,15.28
2019-04-20T06:36:38.631Z,15.02
2019-04-20T06:37:18.439Z,15.39
2019-04-20T06:38:35.318Z,15.96
2019-04-20T06:39:19.983Z,16.38
2019-04-20T06:40:36.463Z,16.61
2019-04-20T06:41:31.801Z,16.71
2019-04-20T06:42:33.623Z,16.48
2019-04-20T06:43:19.238Z,15.44
2019-04-20T06:44:26.727Z,14.91
2019-04-20T06:45:22.631Z,14.73
2019-04-20T06:46:33.432Z,14.78
2019-04-20T06:47:24.651Z,15.35
2019-04-20T06:48:21.468Z,16.00
2019-04-20T06:49:27.450Z,16.46
2019-04-20T06:50:18.487Z,15.50
2019-04-20T06:51:22.358Z,16.43
2019-04-20T06:52:26.157Z,17.01
2019-04-20T06:53:28.533Z,16.83
2019-04-20T06:54:10.370Z,17.25
2019-04-20T06:55:15.716Z,17.41
2019-04-20T06:56:25.192Z,17.90
2019-04-20T06:57:22.094Z,17.78
2019-04-20T06:58:33.715Z,17.06
2019-04-20T06:59:29.042Z,16.85
2019-04-20T07:00:42.034Z,16.94
2019-04-20T07:01:23.574Z,17.59
2019-04-20T07:02:21.879Z,17.74
2019-04-20T07:03:30.937Z,17.77
2019-04-20T07:05:18.954Z,17.79
2019-04-20T07:06:34.899Z,18.20
2019-04-20T07:07:18.469Z,18.57
2019-04-20T07:08:33.079Z,18.72
2019-04-20T07:09:27.188Z,18.94
2019-04-20T07:11:18.813Z,18.91
2019-04-20T07:12:17.399Z,18.47
2019-04-20T07:13:13.116Z,17.58
2019-04-20T07:14:02.904Z,18.05
2019-04-20T07:15:17.800Z,16.70
2019-04-20T07:16:21.399Z,16.45
2019-04-20T07:17:29.727Z,17.00
2019-04-20T07:18:17.189Z,17.55
2019-04-20T07:19:18.977Z,17.28
2019-04-20T07:20:18.426Z,17.07
2019-04-20T07:21:28.769Z,16.50
2019-04-20T07:22:33.604Z,16.79
2019-04-20T07:23:26.608Z,17.15
2019-04-20T07:24:25.214Z,17.75
2019-04-20T07:25:20.257Z,17.90
2019-04-20T07:26:25.454Z,17.71
2019-04-20T07:27:19.776Z,16.97
2019-04-20T07:28:24.254Z,17.14
2019-04-20T07:29:24.036Z,17.15
2019-04-20T07:30:19.454Z,16.98
2019-04-20T07:31:18.816Z,17.22
2019-04-20T07:32:10.299Z,17.75
2019-04-20T07:33:24.381Z,17.41
2019-04-20T07:34:23.405Z,17.92
2019-04-20T07:35:22.101Z,18.23
2019-04-20T07:36:24.490Z,18.51
2019-04-20T07:37:51.378Z,18.48
2019-04-20T07:39:26.437Z,17.93
2019-04-20T07:40:28.703Z,17.15
2019-04-20T07:41:25.946Z,16.60
2019-04-20T07:42:24.263Z,16.81
2019-04-20T07:43:14.683Z,17.48
2019-04-20T07:44:29.903Z,18.17
2019-04-20T07:46:34.604Z,18.52
2019-04-20T07:47:28.187Z,17.54
2019-04-20T07:48:31.078Z,17.99
2019-04-20T07:49:18.156Z,18.73
2019-04-20T07:50:13.012Z,18.48
2019-04-20T07:51:06.614Z,18.37
2019-04-20T07:51:57.663Z,18.20
2019-04-20T07:53:14.662Z,18.02
2019-04-20T07:54:24.751Z,18.69
2019-04-20T07:55:40.014Z,18.85
2019-04-20T07:56:17.738Z,18.67
2019-04-20T07:57:14.760Z,19.04
2019-04-20T07:58:10.132Z,19.18
2019-04-20T07:59:11.622Z,19.65
2019-04-20T08:00:21.413Z,19.95
2019-04-20T08:01:23.844Z,19.41
2019-04-20T08:02:23.536Z,18.63
2019-04-20T08:03:23.693Z,19.36
2019-04-20T08:04:17.451Z,18.67
2019-04-20T08:05:10.661Z,18.51
2019-04-20T08:06:05.362Z,18.51
2019-04-20T08:07:02.105Z,18.45
2019-04-20T08:08:14.899Z,18.90
2019-04-20T08:09:11.606Z,19.55
2019-04-20T08:10:02.884Z,19.74
2019-04-20T08:11:13.967Z,19.71
2019-04-20T08:12:22.149Z,19.95
2019-04-20T08:13:25.731Z,19.96
2019-04-20T08:14:24.121Z,18.90
2019-04-20T08:15:29.980Z,18.57
2019-04-20T08:16:23.132Z,18.57
2019-04-20T08:17:40.420Z,18.92
2019-04-20T08:18:21.270Z,19.23
2019-04-20T08:19:16.329Z,19.08
2019-04-20T08:20:17.317Z,19.13
2019-04-20T08:21:23.298Z,19.41
2019-04-20T08:22:19.809Z,18.66
2019-04-20T08:23:17.156Z,19.22
2019-04-20T08:24:17.710Z,19.00
2019-04-20T08:25:08.927Z,19.48
2019-04-20T08:26:06.657Z,20.05
2019-04-20T08:27:02.716Z,20.59
2019-04-20T08:27:57.317Z,20.98
2019-04-20T08:29:01.581Z,20.74
2019-04-20T08:30:12.228Z,21.09
2019-04-20T08:31:15.267Z,21.40
2019-04-20T08:32:17.943Z,21.64
2019-04-20T08:33:13.329Z,21.52
2019-04-20T08:34:35.355Z,20.26
2019-04-20T08:35:22.845Z,19.80
2019-04-20T08:36:16.847Z,19.47
2019-04-20T08:37:18.171Z,19.92
2019-04-20T08:40:24.335Z,20.43
2019-04-20T08:41:12.886Z,20.79
2019-04-20T08:42:16.388Z,20.92
2019-04-20T08:43:33.623Z,20.87
2019-04-20T08:44:41.373Z,20.92
2019-04-20T08:45:19.345Z,20.66
2019-04-20T08:46:13.501Z,20.38
2019-04-20T08:47:27.186Z,19.78
2019-04-20T08:48:23.176Z,18.94
2019-04-20T08:49:27.955Z,19.40
2019-04-20T08:50:19.817Z,19.96
2019-04-20T08:51:22.679Z,20.23
2019-04-20T08:52:41.407Z,20.58
2019-04-20T08:53:20.664Z,20.66
2019-04-20T08:54:19.277Z,20.32
2019-04-20T08:55:16.736Z,19.74
2019-04-20T08:56:12.736Z,19.04
2019-04-20T08:57:00.351Z,19.19
2019-04-20T08:57:57.136Z,19.39
2019-04-20T08:58:57.309Z,19.31
2019-04-20T08:59:56.043Z,19.63
2019-04-20T09:01:00.185Z,19.98
2019-04-20T09:01:58.066Z,20.50
2019-04-20T09:03:06.927Z,20.82
2019-04-20T09:04:06.596Z,21.09
2019-04-20T09:05:03.209Z,20.84
2019-04-20T09:06:05.553Z,20.79
2019-04-20T09:07:06.441Z,20.98
2019-04-20T09:08:06.869Z,21.10
2019-04-20T09:09:22.476Z,20.77
2019-04-20T09:10:25.637Z,20.67
2019-04-20T09:11:16.862Z,20.72
2019-04-20T09:12:18.015Z,20.74
2019-04-20T09:13:08.476Z,20.55
2019-04-20T09:14:00.169Z,20.97
2019-04-20T09:14:57.413Z,20.94
2019-04-20T09:15:55.638Z,20.99
2019-04-20T09:16:59.761Z,21.17
2019-04-20T09:18:00.982Z,21.25
2019-04-20T09:19:03.552Z,20.43
2019-04-20T09:20:06.312Z,20.61
2019-04-20T09:21:03.379Z,20.73
2019-04-20T09:22:03.218Z,20.39
2019-04-20T09:23:13.482Z,20.61
2019-04-20T09:24:22.787Z,20.84
2019-04-20T09:25:37.649Z,20.67
2019-04-20T09:26:16.073Z,20.94
2019-04-20T09:27:08.740Z,21.28
2019-04-20T09:28:07.425Z,21.75
2019-04-20T09:29:12.748Z,21.82
2019-04-20T09:30:13.644Z,20.89
2019-04-20T09:31:12.231Z,20.24
2019-04-20T09:32:18.964Z,20.35
2019-04-20T09:33:15.235Z,20.70
2019-04-20T09:34:13.331Z,21.19
2019-04-20T09:35:13.659Z,21.10
2019-04-20T09:36:10.340Z,21.38
2019-04-20T09:37:22.361Z,21.64
2019-04-20T09:38:10.908Z,21.80
2019-04-20T09:39:10.377Z,21.69
2019-04-20T09:40:16.258Z,21.71
2019-04-20T09:41:25.278Z,21.74
2019-04-20T09:42:01.481Z,21.79
2019-04-20T09:42:56.011Z,22.22
2019-04-20T09:43:55.871Z,22.49
2019-04-20T09:44:58.057Z,21.84
2019-04-20T09:46:02.036Z,22.07
2019-04-20T09:46:59.823Z,22.25
2019-04-20T09:47:58.369Z,22.54
2019-04-20T09:49:00.722Z,22.94
2019-04-20T09:50:09.002Z,23.19
2019-04-20T09:51:16.858Z,23.40
2019-04-20T09:52:12.200Z,23.02
2019-04-20T09:53:10.023Z,22.83
2019-04-20T09:54:17.451Z,22.79
2019-04-20T09:55:12.118Z,22.95
2019-04-20T09:56:18.131Z,22.37
2019-04-20T09:57:13.321Z,22.07
2019-04-20T09:58:09.756Z,22.00
2019-04-20T09:59:18.905Z,22.45
2019-04-20T10:00:13.382Z,22.52
2019-04-20T10:01:11.204Z,22.68
2019-04-20T10:02:06.633Z,22.31
2019-04-20T10:02:57.915Z,21.92
2019-04-20T10:03:54.805Z,22.10
2019-04-20T10:04:55.604Z,22.45
2019-04-20T10:05:55.934Z,22.61
2019-04-20T10:06:55.221Z,22.58
2019-04-20T10:07:59.874Z,22.39
2019-04-20T10:09:00.071Z,22.05
2019-04-20T10:09:57.869Z,21.98
2019-04-20T10:10:56.036Z,21.68
2019-04-20T10:11:55.740Z,21.79
2019-04-20T10:12:56.280Z,21.91
2019-04-20T10:13:54.692Z,22.24
2019-04-20T10:14:58.488Z,22.52
2019-04-20T10:15:57.713Z,22.37
2019-04-20T10:16:55.846Z,22.54
2019-04-20T10:17:56.026Z,22.95
2019-04-20T10:18:55.265Z,22.94
2019-04-20T10:19:55.718Z,22.95
2019-04-20T10:20:57.940Z,22.65
2019-04-20T10:21:57.279Z,22.35
2019-04-20T10:22:56.334Z,22.37
2019-04-20T10:23:56.597Z,22.57
2019-04-20T10:24:57.137Z,22.80
2019-04-20T10:25:54.592Z,22.54
2019-04-20T10:26:54.671Z,22.42
2019-04-20T10:27:55.830Z,22.76
2019-04-20T10:28:55.255Z,22.88
2019-04-20T10:29:55.624Z,23.19
2019-04-20T10:30:54.795Z,23.09
2019-04-20T10:31:58.724Z,22.82
2019-04-20T10:32:57.482Z,23.12
2019-04-20T10:33:55.716Z,23.15
2019-04-20T10:34:56.752Z,23.23
2019-04-20T10:35:54.521Z,23.02
2019-04-20T10:36:55.527Z,22.97
2019-04-20T10:37:55.665Z,23.15
2019-04-20T10:38:54.883Z,23.12
2019-04-20T10:39:56.573Z,22.77
2019-04-20T10:41:04.408Z,22.83
2019-04-20T10:42:00.489Z,22.83
2019-04-20T10:42:59.530Z,23.12
2019-04-20T10:43:54.514Z,23.33
2019-04-20T10:44:57.061Z,23.22
2019-04-20T10:45:55.475Z,23.43
2019-04-20T10:46:54.480Z,23.70
2019-04-20T10:47:54.971Z,23.17
2019-04-20T10:48:56.079Z,22.95
2019-04-20T10:49:56.513Z,23.16
2019-04-20T10:50:54.832Z,23.02
2019-04-20T10:51:55.803Z,23.16
2019-04-20T10:52:56.074Z,23.32
2019-04-20T10:53:56.141Z,23.47
2019-04-20T10:54:54.584Z,23.51
2019-04-20T10:55:55.613Z,23.50
2019-04-20T10:56:55.436Z,23.68
2019-04-20T10:57:55.596Z,23.46
2019-04-20T10:58:54.357Z,23.31
2019-04-20T10:59:55.388Z,22.91
2019-04-20T11:00:55.631Z,22.73
2019-04-20T11:01:54.351Z,22.27
2019-04-20T11:02:55.410Z,22.10
2019-04-20T11:03:54.549Z,22.43
2019-04-20T11:04:56.872Z,22.75
2019-04-20T11:05:54.402Z,22.92
2019-04-20T11:06:54.527Z,22.98
2019-04-20T11:07:56.730Z,22.75
2019-04-20T11:08:54.318Z,23.00
2019-04-20T11:10:04.371Z,23.17
2019-04-20T11:11:08.302Z,23.10
2019-04-20T11:11:56.636Z,23.20
2019-04-20T11:12:54.305Z,23.32
2019-04-20T11:13:55.359Z,23.19
2019-04-20T11:14:54.552Z,23.19
2019-04-20T11:15:56.597Z,23.27
2019-04-20T11:16:56.132Z,23.09
2019-04-20T11:17:55.369Z,23.32
2019-04-20T11:18:55.492Z,23.43
2019-04-20T11:19:55.008Z,23.25
2019-04-20T11:20:55.323Z,23.31
2019-04-20T11:21:54.395Z,23.00
2019-04-20T11:22:54.314Z,23.12
2019-04-20T11:23:54.301Z,22.92
2019-04-20T11:24:56.435Z,22.86
2019-04-20T11:25:54.220Z,22.86
2019-04-20T11:26:54.233Z,22.94
2019-04-20T11:27:54.422Z,23.17
2019-04-20T11:28:55.900Z,23.40
2019-04-20T11:29:54.191Z,23.27
2019-04-20T11:30:54.330Z,23.50
2019-04-20T11:31:56.496Z,23.35
2019-04-20T11:32:56.028Z,23.20
2019-04-20T11:33:54.242Z,23.15
2019-04-20T11:34:56.457Z,22.82
2019-04-20T11:35:55.152Z,22.98
2019-04-20T11:36:55.025Z,23.23
2019-04-20T11:37:55.358Z,23.32
2019-04-20T11:38:54.425Z,23.22
2019-04-20T11:39:55.107Z,23.20
2019-04-20T11:41:04.185Z,23.28
2019-04-20T11:41:56.111Z,23.33
2019-04-20T11:42:55.290Z,23.31
2019-04-20T11:43:54.096Z,23.10
2019-04-20T11:44:54.904Z,23.07
2019-04-20T11:45:54.483Z,23.15
2019-04-20T11:46:55.078Z,22.98
2019-04-20T11:47:54.084Z,22.72
2019-04-20T11:48:55.321Z,22.83
2019-04-20T11:49:55.395Z,22.91
2019-04-20T11:50:54.027Z,22.94
2019-04-20T11:51:55.332Z,22.86
2019-04-20T11:52:55.198Z,23.01
2019-04-20T11:53:54.388Z,22.95
2019-04-20T11:54:54.999Z,22.91
2019-04-20T11:55:54.219Z,23.17
2019-04-20T11:56:55.363Z,23.05
2019-04-20T11:57:54.214Z,22.76
2019-04-20T11:58:54.996Z,22.94
2019-04-20T11:59:55.001Z,22.91
2019-04-20T12:01:03.193Z,22.77
2019-04-20T12:02:01.051Z,22.82
2019-04-20T12:02:58.641Z,22.85
2019-04-20T12:04:04.147Z,22.72
2019-04-20T12:05:08.835Z,22.58
2019-04-20T12:05:59.397Z,23.12
2019-04-20T12:06:57.064Z,23.16
2019-04-20T12:07:55.436Z,23.20
2019-04-20T12:08:54.990Z,23.04
2019-04-20T12:09:58.545Z,22.88
2019-04-20T12:10:59.850Z,23.12
2019-04-20T12:12:08.243Z,23.16
2019-04-20T12:12:56.251Z,23.25
2019-04-20T12:13:54.913Z,22.95
2019-04-20T12:14:54.782Z,23.02
2019-04-20T12:15:53.994Z,23.28
2019-04-20T12:16:55.471Z,22.94
2019-04-20T12:17:53.938Z,22.77
2019-04-20T12:18:54.657Z,22.80
2019-04-20T12:19:53.856Z,22.83
2019-04-20T12:20:54.834Z,22.85
2019-04-20T12:21:53.944Z,22.76
2019-04-20T12:22:54.872Z,23.09
2019-04-20T12:23:54.121Z,23.17
2019-04-20T12:24:56.143Z,23.20
2019-04-20T12:25:54.390Z,22.97
2019-04-20T12:26:54.583Z,22.97
2019-04-20T12:27:57.022Z,22.76
2019-04-20T12:28:55.879Z,22.90
2019-04-20T12:29:54.053Z,22.88
2019-04-20T12:30:58.344Z,22.85
2019-04-20T12:31:59.181Z,22.72
2019-04-20T12:32:59.760Z,22.57
2019-04-20T12:33:54.868Z,22.58
2019-04-20T12:34:56.047Z,22.73
2019-04-20T12:35:54.212Z,22.75
2019-04-20T12:36:55.281Z,22.67
2019-04-20T12:37:54.698Z,22.82
2019-04-20T12:38:54.929Z,22.64
2019-04-20T12:39:55.233Z,22.75
2019-04-20T12:40:53.738Z,23.02
2019-04-20T12:41:58.383Z,23.19
2019-04-20T12:42:57.101Z,22.95
2019-04-20T12:43:56.033Z,23.27
2019-04-20T12:44:53.692Z,23.31
2019-04-20T12:45:53.873Z,23.16
2019-04-20T12:46:55.918Z,22.80
2019-04-20T12:47:53.694Z,22.98
2019-04-20T12:48:53.673Z,23.01
2019-04-20T12:49:53.812Z,22.98
2019-04-20T12:50:55.438Z,23.02
2019-04-20T12:51:58.004Z,23.27
2019-04-20T12:52:56.699Z,22.94
2019-04-20T12:53:54.665Z,22.95
2019-04-20T12:54:54.535Z,23.38
2019-04-20T12:55:54.760Z,23.19
2019-04-20T12:56:53.638Z,23.25
2019-04-20T12:57:54.499Z,23.09
2019-04-20T12:58:53.693Z,23.00
2019-04-20T12:59:54.636Z,23.23
2019-04-20T13:00:54.381Z,23.15
2019-04-20T13:01:53.607Z,23.02
2019-04-20T13:02:53.760Z,22.95
2019-04-20T13:03:55.296Z,22.94
2019-04-20T13:04:53.668Z,22.92
2019-04-20T13:05:54.287Z,22.88
2019-04-20T13:06:55.365Z,23.15
2019-04-20T13:07:58.961Z,22.95
2019-04-20T13:08:58.807Z,22.97
2019-04-20T13:09:56.918Z,22.90
2019-04-20T13:10:54.866Z,22.94
2019-04-20T13:11:59.431Z,22.88
2019-04-20T13:12:56.547Z,22.65
2019-04-20T13:13:54.537Z,22.92
2019-04-20T13:14:53.501Z,22.94
2019-04-20T13:15:56.360Z,22.97
2019-04-20T13:16:55.076Z,23.17
2019-04-20T13:17:54.520Z,23.28
2019-04-20T13:18:53.504Z,23.23
2019-04-20T13:19:53.537Z,23.12
2019-04-20T13:20:56.439Z,23.00
2019-04-20T13:21:54.802Z,23.17
2019-04-20T13:22:55.019Z,23.00
2019-04-20T13:23:53.482Z,22.95
2019-04-20T13:24:54.840Z,22.92
2019-04-20T13:25:53.445Z,23.17
2019-04-20T13:26:53.438Z,23.32
2019-04-20T13:27:54.700Z,23.39
2019-04-20T13:28:53.443Z,23.27
2019-04-20T13:29:54.543Z,23.31
2019-04-20T13:30:53.644Z,23.42
2019-04-20T13:31:56.308Z,23.22
2019-04-20T13:32:54.425Z,23.04
2019-04-20T13:33:53.418Z,22.83
2019-04-20T13:34:54.151Z,22.80
2019-04-20T13:35:54.368Z,22.85
2019-04-20T13:36:53.395Z,23.05
2019-04-20T13:37:54.137Z,22.94
2019-04-20T13:38:54.312Z,22.97
2019-04-20T13:39:53.356Z,23.00
2019-04-20T13:40:53.667Z,22.97
2019-04-20T13:42:03.454Z,23.00
2019-04-20T13:42:55.960Z,23.13
2019-04-20T13:43:56.122Z,22.95
2019-04-20T13:44:54.944Z,22.85
2019-04-20T13:45:53.344Z,22.77
2019-04-20T13:46:54.672Z,22.75
2019-04-20T13:47:53.337Z,22.91
2019-04-20T13:48:53.351Z,23.09
2019-04-20T13:49:54.595Z,22.92
2019-04-20T13:50:53.963Z,23.00
2019-04-20T13:51:53.296Z,22.92
2019-04-20T13:52:53.283Z,22.97
2019-04-20T13:53:53.417Z,23.01
2019-04-20T13:54:54.340Z,22.80
2019-04-20T13:55:54.066Z,22.62
2019-04-20T13:56:53.270Z,22.61
2019-04-20T13:57:53.806Z,22.72
2019-04-20T13:58:53.962Z,22.75
2019-04-20T13:59:53.328Z,22.65